Latest Weather Observations for Lord Howe Island Windy Point

IDN60801

Issued at 4:32 pm EST Wednesday 26 July 2017 (issued every 30 minutes, with the page automatically refreshed every 10 minutes)

About weather observations | Map of weather stations | Latest weather observations for NSW | Other Formats
Station Details ID: 200715 Name: LORD HOWE ISLAND WINDY POINT Lat: -31.54 Lon: 159.07 Height: 4.0 m
Data from the previous 72 hours. | See also: Recent months for locations in New South Wales
Date/Time
EST
Temp
°C
App
Temp
°C
Dew
Point
°C
Rel
Hum
%
Delta-T
°C
Wind Press
QNH
hPa
Press
MSL
hPa
Rain since
9am
mm
Dir  Spd
km/h
Gust
km/h
Spd
kts
Gust
kts
26/04:30pm - - - - - W 41 46 22 25 - - -
26/04:00pm - - - - - WNW 39 50 21 27 - - -
26/03:30pm - - - - - WNW 41 48 22 26 - - -
26/03:00pm - - - - - W 41 48 22 26 - - -
26/02:30pm - - - - - W 39 48 21 26 - - -
26/02:00pm - - - - - WNW 37 46 20 25 - - -
26/01:30pm - - - - - W 43 50 23 27 - - -
26/01:00pm - - - - - W 41 48 22 26 - - -
26/12:30pm - - - - - W 41 46 22 25 - - -
26/12:00pm - - - - - W 37 44 20 24 - - -
26/11:30am - - - - - W 35 41 19 22 - - -
26/11:00am - - - - - W 33 39 18 21 - - -
26/10:30am - - - - - W 33 41 18 22 - - -
26/10:00am - - - - - W 35 41 19 22 - - -
26/09:30am - - - - - W 33 39 18 21 - - -
26/09:00am - - - - - W 32 37 17 20 - - -
26/08:30am - - - - - W 33 41 18 22 - - -
26/08:00am - - - - - W 37 44 20 24 - - -
26/07:30am - - - - - WSW 39 46 21 25 - - -
26/07:00am - - - - - W 41 48 22 26 - - -
26/06:30am - - - - - W 39 44 21 24 - - -
26/06:00am - - - - - W 39 48 21 26 - - -
26/05:30am - - - - - W 39 44 21 24 - - -
26/05:00am - - - - - W 37 46 20 25 - - -
26/04:30am - - - - - W 32 35 17 19 - - -
26/04:00am - - - - - W 28 33 15 18 - - -
26/03:30am - - - - - W 28 33 15 18 - - -
26/03:00am - - - - - NW 22 33 12 18 - - -
26/02:30am - - - - - NW 20 28 11 15 - - -
26/02:00am - - - - - NW 11 17 6 9 - - -
26/01:30am - - - - - NNW 13 20 7 11 - - -
26/01:00am - - - - - NNW 11 13 6 7 - - -
26/12:30am - - - - - NNW 9 15 5 8 - - -
26/12:00am - - - - - NNW 9 15 5 8 - - -
 
Date/Time
EST
Temp
°C
App
Temp
°C
Dew
Point
°C
Rel
Hum
%
Delta-T
°C
Wind Press
QNH
hPa
Press
MSL
hPa
Rain since
9am
mm
Dir  Spd
km/h
Gust
km/h
Spd
kts
Gust
kts
25/11:30pm - - - - - NNW 7 9 4 5 - - -
25/11:00pm - - - - - NNW 7 9 4 5 - - -
25/10:30pm - - - - - CALM 0 0 0 0 - - -
25/10:00pm - - - - - NW 4 6 2 3 - - -
25/09:30pm - - - - - CALM 0 0 0 0 - - -
25/09:00pm - - - - - CALM 0 0 0 0 - - -
25/08:30pm - - - - - NW 4 7 2 4 - - -
25/08:00pm - - - - - CALM 0 0 0 0 - - -
25/07:30pm - - - - - CALM 0 4 0 2 - - -
25/07:00pm - - - - - SSE 2 6 1 3 - - -
25/06:30pm - - - - - WSW 13 17 7 9 - - -
25/06:00pm - - - - - SW 15 17 8 9 - - -
25/05:30pm - - - - - SW 13 17 7 9 - - -
25/05:00pm - - - - - SW 17 20 9 11 - - -
25/04:30pm - - - - - SW 19 22 10 12 - - -
25/04:00pm - - - - - SW 17 19 9 10 - - -
25/03:30pm - - - - - WSW 19 20 10 11 - - -
25/03:00pm - - - - - WSW 22 26 12 14 - - -
25/02:30pm - - - - - WSW 20 30 11 16 - - -
25/02:00pm - - - - - SW 20 24 11 13 - - -
25/01:30pm - - - - - WSW 22 28 12 15 - - -
25/01:00pm - - - - - WSW 30 35 16 19 - - -
25/12:30pm - - - - - SSW 19 24 10 13 - - -
25/12:00pm - - - - - SW 20 26 11 14 - - -
25/11:30am - - - - - SW 22 28 12 15 - - -
25/11:00am - - - - - SW 24 28 13 15 - - -
25/10:30am - - - - - SSW 24 30 13 16 - - -
25/10:00am - - - - - SSW 24 32 13 17 - - -
25/09:30am - - - - - SSW 22 26 12 14 - - -
25/09:00am - - - - - SSW 24 30 13 16 - - -
25/08:30am - - - - - SSW 22 28 12 15 - - -
25/08:00am - - - - - SSW 24 30 13 16 - - -
25/07:30am - - - - - SSW 28 35 15 19 - - -
25/07:00am - - - - - S 24 35 13 19 - - -
25/06:30am - - - - - SSW 33 44 18 24 - - -
25/06:00am - - - - - SSW 26 30 14 16 - - -
25/05:30am - - - - - SSW 28 35 15 19 - - -
25/05:00am - - - - - SSW 26 32 14 17 - - -
25/04:30am - - - - - SSW 26 32 14 17 - - -
25/04:00am - - - - - SSW 28 33 15 18 - - -
25/03:30am - - - - - SSW 28 33 15 18 - - -
25/03:00am - - - - - SSW 30 33 16 18 - - -
25/02:30am - - - - - SSW 24 30 13 16 - - -
25/02:00am - - - - - SSW 24 28 13 15 - - -
25/01:30am - - - - - SSW 28 32 15 17 - - -
25/01:00am - - - - - SSW 26 32 14 17 - - -
25/12:30am - - - - - S 22 28 12 15 - - -
25/12:00am - - - - - SW 26 30 14 16 - - -
 
Date/Time
EST
Temp
°C
App
Temp
°C
Dew
Point
°C
Rel
Hum
%
Delta-T
°C
Wind Press
QNH
hPa
Press
MSL
hPa
Rain since
9am
mm
Dir  Spd
km/h
Gust
km/h
Spd
kts
Gust
kts
24/11:30pm - - - - - SW 28 33 15 18 - - -
24/11:00pm - - - - - SW 28 33 15 18 - - -
24/10:30pm - - - - - SW 26 32 14 17 - - -
24/10:00pm - - - - - SW 22 30 12 16 - - -
24/09:30pm - - - - - SW 24 28 13 15 - - -
24/09:00pm - - - - - SW 20 24 11 13 - - -
24/08:30pm - - - - - SW 20 24 11 13 - - -
24/08:00pm - - - - - SW 20 24 11 13 - - -
24/07:30pm - - - - - SW 20 24 11 13 - - -
24/07:00pm - - - - - WSW 24 30 13 16 - - -
24/06:30pm - - - - - SW 26 30 14 16 - - -
24/06:00pm - - - - - WSW 33 41 18 22 - - -
24/05:30pm - - - - - SW 30 35 16 19 - - -
24/05:00pm - - - - - SW 33 39 18 21 - - -
24/04:30pm - - - - - SW 35 41 19 22 - - -
24/04:00pm - - - - - WSW 37 44 20 24 - - -
24/03:30pm - - - - - WSW 39 43 21 23 - - -
24/03:00pm - - - - - WSW 37 44 20 24 - - -
24/02:30pm - - - - - WSW 37 43 20 23 - - -
24/02:00pm - - - - - WSW 37 44 20 24 - - -
24/01:30pm - - - - - WSW 37 43 20 23 - - -
24/01:00pm - - - - - WSW 41 46 22 25 - - -
24/12:30pm - - - - - WSW 39 44 21 24 - - -
24/12:00pm - - - - - WSW 37 43 20 23 - - -
24/11:30am - - - - - WSW 37 44 20 24 - - -
24/11:00am - - - - - W 33 41 18 22 - - -
24/10:30am - - - - - W 33 37 18 20 - - -
24/10:00am - - - - - W 32 37 17 20 - - -
24/09:30am - - - - - W 33 37 18 20 - - -
24/09:00am - - - - - W 33 39 18 21 - - -
24/08:30am - - - - - W 35 41 19 22 - - -
24/08:00am - - - - - W 35 43 19 23 - - -
24/07:30am - - - - - W 35 39 19 21 - - -
24/07:00am - - - - - W 33 39 18 21 - - -
24/06:30am - - - - - W 30 35 16 19 - - -
24/06:00am - - - - - W 28 33 15 18 - - -
24/05:30am - - - - - W 32 35 17 19 - - -
24/05:00am - - - - - WSW 32 35 17 19 - - -
24/04:30am - - - - - W 33 41 18 22 - - -
24/04:00am - - - - - W 33 41 18 22 - - -
24/03:30am - - - - - W 33 39 18 21 - - -
24/03:00am - - - - - W 32 39 17 21 - - -
24/02:30am - - - - - WNW 28 35 15 19 - - -
24/02:00am - - - - - WNW 32 37 17 20 - - -
24/01:30am - - - - - WNW 24 33 13 18 - - -
24/01:00am - - - - - WNW 28 35 15 19 - - -
24/12:30am - - - - - WNW 28 39 15 21 - - -
24/12:00am - - - - - WNW 28 39 15 21 - - -
 
Date/Time
EST
Temp
°C
App
Temp
°C
Dew
Point
°C
Rel
Hum
%
Delta-T
°C
Wind Press
QNH
hPa
Press
MSL
hPa
Rain since
9am
mm
Dir  Spd
km/h
Gust
km/h
Spd
kts
Gust
kts
23/11:30pm - - - - - WNW 30 37 16 20 - - -
23/11:00pm - - - - - WNW 28 33 15 18 - - -
23/10:30pm - - - - - WNW 24 30 13 16 - - -
23/10:00pm - - - - - WNW 24 35 13 19 - - -
23/09:30pm - - - - - NW 30 37 16 20 - - -
23/09:00pm - - - - - NW 20 30 11 16 - - -
23/08:30pm - - - - - NW 19 24 10 13 - - -
23/08:00pm - - - - - NW 20 28 11 15 - - -
23/07:30pm - - - - - NW 26 32 14 17 - - -
23/07:00pm - - - - - NW 26 33 14 18 - - -
23/06:30pm - - - - - NW 30 35 16 19 - - -
23/06:00pm - - - - - NW 26 33 14 18 - - -
23/05:30pm - - - - - NW 17 26 9 14 - - -
23/05:00pm - - - - - NW 22 30 12 16 - - -

Other Formats:

Comma delimited format used in spreadsheet applications
http://www.bom.gov.au/fwo/IDN60801/IDN60801.95995.axf

JavaScript Object Notation format (JSON) in row-major order
http://www.bom.gov.au/fwo/IDN60801/IDN60801.95995.json